Flood From: 19-02-2018 16:00 Until: 20-02-2018 16:00 warning for: Flood Level: Yellow info button

Although rather usual in this region, locally or potentially dangerous phenomena are expected. (such as local winds, summer thunderstorms, rising streams or high waves) Be aware and pay attention to the latest weather updates, especially if you carry out activities exposed to weather or close to a stream or shoreline. 


Meteo18 Weather Cam more information Meteo18 Weather Cam


Thunder radar more information blitzortung!


Rain radar more information rain snow radar


Visit our other weather sites:

Template documentation
and downloads

And another site



Weather Underground History page Text

Daily Summary for December 28, 2017 Units:  English    Metric   Both
« Previous Day
Next Day »
Daily Weekly Monthly Yearly Custom
  High: Low: Average:
Temperature: TemperatureC °F -0.9 °F 1 °F
Dew Point: DewpointC °F -1.5 °F -0.3 °F
Humidity: Humidity % 84 % 90 %
Wind Speed: WindSpeedKMH mph 0.0 mph 4 mph
Wind Gust: WindSpeedGustKMH mph - -
Wind:- - WSW
Pressure: PressurehPa in 1001.6 in -
Precipitation: 0.5 in    
Historical Graphs
 
 
Tabular Data for December 28, 2017
Time Temperature Dew Point Pressure Wind Wind Speed Wind Gust Humidity Rainfall Rate (Hourly)
TemperatureC °F DewpointC °F PressurehPa in Calm     Humidity % HourlyPrecipMM in
00:04 2.2 °F -0.1 °F 1001.6 in WNW 13.0 mph 27.4 mph 85 % 0.0 in
00:11 2.2 °F -0.2 °F 1001.6 in West 7.9 mph 22.5 mph 84 % 0.0 in
00:17 2.2 °F -0.2 °F 1001.6 in NW 19.5 mph 27.4 mph 84 % 0.0 in
00:22 2.1 °F -0.3 °F 1001.6 in WNW 13.0 mph 17.7 mph 84 % 0.0 in
00:29 2.0 °F -0.3 °F 1001.6 in West 20.9 mph 29.0 mph 85 % 0.0 in
00:35 1.9 °F -0.4 °F 1001.9 in WNW 11.1 mph 24.1 mph 85 % 0.0 in
00:43 1.8 °F -0.5 °F 1001.9 in NW 11.1 mph 17.7 mph 85 % 0.0 in
00:49 1.8 °F -0.5 °F 1001.9 in WNW 11.1 mph 19.3 mph 85 % 0.0 in
00:55 1.7 °F -0.6 °F 1001.9 in West 7.9 mph 19.3 mph 85 % 0.0 in
00:57 1.7 °F -0.6 °F 1001.9 in WNW 20.9 mph 24.1 mph 85 % 0.0 in
01:03 1.7 °F -0.6 °F 1001.6 in WNW 13.0 mph 22.5 mph 85 % 0.0 in
01:05 1.7 °F -0.6 °F 1001.9 in WNW 11.1 mph 16.1 mph 85 % 0.0 in
01:11 1.6 °F -0.6 °F 1001.9 in West 7.9 mph 22.5 mph 85 % 0.0 in
01:17 1.6 °F -0.6 °F 1001.9 in WNW 17.7 mph 20.9 mph 85 % 0.0 in
01:23 1.6 °F -0.6 °F 1001.9 in WNW 16.3 mph 30.6 mph 85 % 0.0 in
01:29 1.6 °F -0.6 °F 1001.9 in West 14.3 mph 30.6 mph 85 % 0.0 in
01:35 1.5 °F -0.7 °F 1002.3 in WNW 13.0 mph 16.1 mph 85 % 0.0 in
01:41 1.6 °F -0.6 °F 1002.3 in WNW 14.3 mph 20.9 mph 85 % 0.0 in
01:47 1.4 °F -0.8 °F 1002.3 in West 16.3 mph 24.1 mph 85 % 0.0 in
01:53 1.4 °F -0.7 °F 1002.3 in WNW 13.0 mph 30.6 mph 86 % 0.0 in
01:59 1.4 °F -0.7 °F 1002.3 in WNW 17.7 mph 17.7 mph 86 % 0.0 in
02:05 1.4 °F -0.7 °F 1002.3 in West 6.4 mph 27.4 mph 86 % 0.0 in
02:11 1.4 °F -0.8 °F 1002.3 in West 1.4 mph 22.5 mph 85 % 0.0 in
02:17 1.3 °F -0.8 °F 1002.6 in West 16.3 mph 17.7 mph 86 % 0.0 in
02:23 1.3 °F -0.8 °F 1002.6 in WNW 14.3 mph 14.5 mph 86 % 0.0 in
02:29 1.3 °F -0.8 °F 1002.6 in West 9.7 mph 14.5 mph 86 % 0.0 in
02:35 1.3 °F -0.8 °F 1002.6 in WNW 13.0 mph 16.1 mph 86 % 0.0 in
02:41 1.3 °F -0.8 °F 1002.9 in West 17.7 mph 17.7 mph 86 % 0.0 in
02:47 1.3 °F -0.8 °F 1002.9 in WNW 20.9 mph 25.7 mph 86 % 0.0 in
02:53 1.3 °F -0.8 °F 1002.9 in West 11.1 mph 19.3 mph 86 % 0.0 in
02:59 1.2 °F -0.9 °F 1002.9 in West 7.9 mph 22.5 mph 86 % 0.0 in
03:05 1.2 °F -0.9 °F 1002.9 in WSW 7.9 mph 20.9 mph 86 % 0.0 in
03:11 1.2 °F -0.7 °F 1002.9 in WNW 20.9 mph 20.9 mph 87 % 0.0 in
03:17 1.1 °F -0.8 °F 1002.9 in WNW 11.1 mph 14.5 mph 87 % 0.0 in
03:23 1.1 °F -0.8 °F 1003.3 in West 7.9 mph 14.5 mph 87 % 0.0 in
03:29 1.0 °F -0.9 °F 1002.9 in NNW 4.7 mph 17.7 mph 87 % 0.0 in
03:35 0.9 °F -1.0 °F 1003.3 in WSW 7.9 mph 16.1 mph 87 % 0.0 in
03:41 0.9 °F -1.0 °F 1003.3 in NW 16.3 mph 17.7 mph 87 % 0.0 in
03:47 0.9 °F -0.9 °F 1003.3 in NW 13.0 mph 17.7 mph 88 % 0.0 in
03:53 0.9 °F -0.9 °F 1003.3 in WNW 4.7 mph 12.9 mph 88 % 0.0 in
03:59 0.9 °F -0.9 °F 1003.6 in West 11.1 mph 16.1 mph 88 % 0.0 in
04:05 0.8 °F -1.0 °F 1003.6 in West 11.1 mph 12.9 mph 88 % 0.0 in
04:07 0.9 °F -0.9 °F 1003.6 in WNW 6.4 mph 12.9 mph 88 % 0.0 in
04:19 0.8 °F -1.0 °F 1003.6 in Calm   1.6 mph 88 % 0.0 in
04:25 0.7 °F -1.1 °F 1003.6 in West 1.4 mph 3.2 mph 88 % 0.0 in
04:31 0.7 °F -1.1 °F 1003.6 in West 4.7 mph 14.5 mph 88 % 0.0 in
04:37 0.7 °F -1.1 °F 1003.6 in WSW 4.7 mph 11.3 mph 88 % 0.0 in
04:49 0.7 °F -1.1 °F 1003.9 in Calm   4.8 mph 88 % 0.0 in
04:55 0.7 °F -1.1 °F 1003.9 in West 7.9 mph 8.0 mph 88 % 0.0 in
05:01 0.6 °F -1.0 °F 1003.9 in Calm   3.2 mph 89 % 0.0 in
05:07 0.6 °F -1.0 °F 1003.9 in Calm   1.6 mph 89 % 0.0 in
05:13 0.4 °F -1.2 °F 1003.9 in West 1.4 mph 3.2 mph 89 % 0.0 in
05:17 0.4 °F -1.2 °F 1003.9 in Calm     89 % 0.0 in
05:23 0.3 °F -1.3 °F 1004.3 in Calm   1.6 mph 89 % 0.0 in
05:29 0.2 °F -1.2 °F 1004.3 in SSW 1.4 mph 3.2 mph 90 % 0.0 in
05:35 0.0 °F -1.4 °F 1004.3 in SW 1.4 mph 3.2 mph 90 % 0.0 in
05:41 -0.2 °F -1.5 °F 1004.3 in SW 3.2 mph 4.8 mph 91 % 0.0 in
05:47 -0.2 °F -1.5 °F 1004.6 in SW 1.4 mph 3.2 mph 91 % 0.0 in
05:51 -0.2 °F -1.5 °F 1004.6 in Calm   1.6 mph 91 % 0.0 in
05:57 -0.3 °F -1.4 °F 1004.6 in Calm   4.8 mph 92 % 0.0 in
06:05 -0.3 °F -1.4 °F 1004.6 in West 3.2 mph 3.2 mph 92 % 0.0 in
06:09 -0.4 °F -1.5 °F 1004.6 in West 1.4 mph 1.6 mph 92 % 0.0 in
06:15 -0.3 °F -1.4 °F 1004.6 in WSW 1.4 mph 4.8 mph 92 % 0.0 in
06:17 -0.3 °F -1.4 °F 1004.6 in Calm   4.8 mph 92 % 0.0 in
06:23 -0.3 °F -1.4 °F 1004.6 in Calm   1.6 mph 92 % 0.0 in
06:29 -0.3 °F -1.4 °F 1004.6 in West 1.4 mph 4.8 mph 92 % 0.0 in
06:35 -0.3 °F -1.4 °F 1004.6 in WSW 3.2 mph 3.2 mph 92 % 0.0 in
06:37 -0.3 °F -1.4 °F 1004.6 in NW 3.2 mph 4.8 mph 92 % 0.0 in
06:43 -0.3 °F -1.4 °F 1004.6 in WNW 1.4 mph 4.8 mph 92 % 0.0 in
06:51 -0.3 °F -1.4 °F 1005.0 in WNW 6.4 mph 6.4 mph 92 % 0.0 in
06:57 -0.3 °F -1.4 °F 1005.0 in WNW 4.7 mph 6.4 mph 92 % 0.0 in
07:03 -0.3 °F -1.4 °F 1005.0 in WNW 4.7 mph 4.8 mph 92 % 0.0 in
07:09 -0.3 °F -1.4 °F 1005.0 in West 1.4 mph 8.0 mph 92 % 0.0 in
07:15 -0.4 °F -1.5 °F 1005.0 in West 1.4 mph 3.2 mph 92 % 0.0 in
07:19 -0.3 °F -1.3 °F 1005.0 in NW 1.4 mph 3.2 mph 93 % 0.0 in
07:25 -0.3 °F -1.4 °F 1005.0 in Calm   1.6 mph 92 % 0.0 in
07:31 -0.4 °F -1.4 °F 1005.3 in Calm   3.2 mph 93 % 0.0 in
07:37 -0.3 °F -1.3 °F 1005.3 in Calm   4.8 mph 93 % 0.0 in
07:43 -0.4 °F -1.5 °F 1005.6 in SSW 1.4 mph 1.6 mph 92 % 0.0 in
07:49 -0.5 °F -1.5 °F 1005.3 in Calm   3.2 mph 93 % 0.0 in
07:55 -0.5 °F -1.5 °F 1005.3 in Calm   1.6 mph 93 % 0.0 in
08:01 -0.5 °F -1.5 °F 1005.6 in SW 1.4 mph 1.6 mph 93 % 0.0 in
08:07 -0.3 °F -1.3 °F 1005.6 in SSW 1.4 mph 4.8 mph 93 % 0.0 in
08:13 -0.2 °F -1.2 °F 1005.6 in WSW 1.4 mph 3.2 mph 93 % 0.0 in
08:19 -0.1 °F -1.1 °F 1005.6 in West 3.2 mph 6.4 mph 93 % 0.0 in
08:25 0.0 °F -1.0 °F 1005.6 in Calm   3.2 mph 93 % 0.0 in
08:32 0.1 °F -0.9 °F 1005.6 in West 1.4 mph 4.8 mph 93 % 0.0 in
08:38 0.2 °F -0.8 °F 1006.0 in SW 1.4 mph 4.8 mph 93 % 0.0 in
08:44 0.2 °F -0.8 °F 1006.0 in SSW 1.4 mph 3.2 mph 93 % 0.0 in
08:50 0.2 °F -0.8 °F 1006.0 in SSE 1.4 mph 3.2 mph 93 % 0.0 in
08:56 0.0 °F -1.0 °F 1006.0 in SW 6.4 mph 6.4 mph 93 % 0.0 in
09:02 0.0 °F -1.0 °F 1006.0 in SW 3.2 mph 9.7 mph 93 % 0.0 in
09:08 -0.2 °F -1.0 °F 1005.6 in West 6.4 mph 11.3 mph 94 % 0.0 in
09:14 0.2 °F -0.7 °F 1006.0 in WSW 7.9 mph 11.3 mph 94 % 0.0 in
09:20 0.2 °F -0.7 °F 1006.0 in WSW 7.9 mph 12.9 mph 94 % 0.0 in
09:26 0.3 °F -0.6 °F 1006.0 in WSW 9.7 mph 11.3 mph 94 % 0.0 in
09:32 0.3 °F -0.7 °F 1006.0 in SW 3.2 mph 8.0 mph 93 % 0.0 in
09:38 0.3 °F -0.7 °F 1006.0 in WSW 6.4 mph 8.0 mph 93 % 0.0 in
09:44 0.3 °F -0.7 °F 1006.0 in South 1.4 mph 4.8 mph 93 % 0.0 in
09:50 0.2 °F -0.8 °F 1006.3 in Calm   1.6 mph 93 % 0.0 in
09:56 0.2 °F -0.8 °F 1006.3 in Calm   1.6 mph 93 % 0.0 in
10:02 0.2 °F -0.8 °F 1006.3 in Calm     93 % 0.0 in
10:08 0.1 °F -0.9 °F 1006.3 in SSW 3.2 mph 4.8 mph 93 % 0.0 in
10:14 -0.1 °F -1.1 °F 1006.3 in SSW 4.7 mph 4.8 mph 93 % 0.0 in
10:20 -0.2 °F -1.0 °F 1006.3 in SSW 3.2 mph 6.4 mph 94 % 0.0 in
10:26 -0.3 °F -1.1 °F 1006.3 in South 1.4 mph 3.2 mph 94 % 0.0 in
10:32 -0.3 °F -1.1 °F 1006.3 in Calm   4.8 mph 94 % 0.0 in
10:38 -0.2 °F -0.9 °F 1006.3 in SSE 1.4 mph 4.8 mph 95 % 0.0 in
10:44 0.1 °F -0.6 °F 1006.3 in Calm   3.2 mph 95 % 0.0 in
10:50 0.3 °F -0.6 °F 1006.3 in Calm   9.7 mph 94 % 0.0 in
10:56 0.3 °F -0.6 °F 1006.7 in WSW 1.4 mph 8.0 mph 94 % 0.0 in
11:02 0.4 °F -0.5 °F 1006.3 in SW 1.4 mph 1.6 mph 94 % 0.0 in
11:08 0.4 °F -0.6 °F 1006.7 in West 7.9 mph 9.7 mph 93 % 0.0 in
11:14 0.6 °F -0.4 °F 1006.7 in WSW 6.4 mph 12.9 mph 93 % 0.0 in
11:17 0.6 °F -0.4 °F 1006.7 in SW 6.4 mph 11.3 mph 93 % 0.0 in
11:24 0.7 °F -0.3 °F 1006.7 in WNW 3.2 mph 9.7 mph 93 % 0.0 in
11:26 0.8 °F -0.2 °F 1006.7 in SSW 1.4 mph 8.0 mph 93 % 0.0 in
11:32 0.8 °F -0.4 °F 1006.7 in WSW 1.4 mph 9.7 mph 92 % 0.0 in
11:38 1.0 °F -0.2 °F 1006.7 in Calm   6.4 mph 92 % 0.0 in
11:44 1.1 °F -0.2 °F 1006.7 in West 6.4 mph 8.0 mph 91 % 0.0 in
11:50 1.2 °F 0.0 °F 1006.7 in WSW 1.4 mph 1.6 mph 92 % 0.0 in
11:56 1.2 °F -0.1 °F 1007.0 in SW 1.4 mph 4.8 mph 91 % 0.0 in
12:02 1.3 °F 0.0 °F 1007.0 in SW 3.2 mph 3.2 mph 91 % 0.0 in
12:08 1.3 °F 0.0 °F 1007.0 in SW 1.4 mph 4.8 mph 91 % 0.0 in
12:14 1.3 °F 0.0 °F 1006.7 in SW 1.4 mph 4.8 mph 91 % 0.0 in
12:20 1.3 °F 0.0 °F 1007.0 in SW 4.7 mph 6.4 mph 91 % 0.0 in
12:26 1.3 °F 0.0 °F 1006.7 in SW 3.2 mph 6.4 mph 91 % 0.0 in
12:32 1.3 °F 0.0 °F 1007.0 in West 4.7 mph 9.7 mph 91 % 0.0 in
12:40 1.3 °F 0.0 °F 1007.0 in SSW 6.4 mph 8.0 mph 91 % 0.0 in
12:46 1.4 °F 0.1 °F 1007.0 in SSW 1.4 mph 6.4 mph 91 % 0.0 in
12:52 1.4 °F 0.1 °F 1006.7 in SW 3.2 mph 6.4 mph 91 % 0.0 in
12:58 1.5 °F 0.2 °F 1006.7 in West 1.4 mph 8.0 mph 91 % 0.0 in
13:04 1.6 °F 0.3 °F 1006.7 in West 6.4 mph 11.3 mph 91 % 0.0 in
13:10 1.8 °F 0.5 °F 1006.7 in WSW 4.7 mph 8.0 mph 91 % 0.0 in
13:16 1.9 °F 0.4 °F 1006.3 in Calm   8.0 mph 90 % 0.0 in
13:22 2.1 °F 0.6 °F 1006.3 in SW 3.2 mph 8.0 mph 90 % 0.0 in
13:28 2.4 °F 0.8 °F 1006.3 in WSW 6.4 mph 12.9 mph 89 % 0.0 in
13:34 2.7 °F 1.1 °F 1006.3 in SSW 3.2 mph 9.7 mph 89 % 0.3 in
13:40 2.8 °F 1.0 °F 1006.3 in WSW 6.4 mph 9.7 mph 88 % 0.3 in
13:46 3.2 °F 1.4 °F 1006.3 in SW 1.4 mph 4.8 mph 88 % 0.3 in
13:52 3.3 °F 1.2 °F 1006.3 in SW 4.7 mph 9.7 mph 86 % 0.3 in
13:58 3.3 °F 1.2 °F 1006.7 in WNW 4.7 mph 8.0 mph 86 % 0.3 in
14:04 3.4 °F 1.1 °F 1006.3 in WSW 6.4 mph 11.3 mph 85 % 0.3 in
14:10 3.4 °F 1.3 °F 1006.7 in West 7.9 mph 14.5 mph 86 % 0.3 in
14:16 3.4 °F 1.4 °F 1006.7 in WSW 4.7 mph 9.7 mph 87 % 0.3 in
14:20 3.4 °F 1.3 °F 1006.7 in West 7.9 mph 14.5 mph 86 % 0.3 in
14:26 3.4 °F 1.4 °F 1006.7 in WSW 11.1 mph 12.9 mph 87 % 0.3 in
14:32 3.5 °F 1.4 °F 1007.0 in SW 9.7 mph 14.5 mph 86 % 0.3 in
14:38 3.6 °F 1.5 °F 1007.0 in SW 9.7 mph 11.3 mph 86 % 0.3 in
14:44 3.4 °F 1.3 °F 1007.0 in SW 7.9 mph 11.3 mph 86 % 0.3 in
14:50 3.5 °F 1.5 °F 1007.0 in South 3.2 mph 11.3 mph 87 % 0.3 in
14:56 3.7 °F 1.7 °F 1007.0 in SSE 1.4 mph 6.4 mph 87 % 0.3 in
15:02 3.9 °F 1.8 °F 1007.0 in WSW 6.4 mph 6.4 mph 86 % 0.3 in
15:08 4.0 °F 1.7 °F 1007.3 in SW 3.2 mph 8.0 mph 85 % 0.3 in
15:14 4.1 °F 1.6 °F 1007.3 in WSW 6.4 mph 11.3 mph 84 % 0.3 in
15:20 4.0 °F 1.7 °F 1007.3 in West 4.7 mph 9.7 mph 85 % 0.3 in
15:26 3.8 °F 1.5 °F 1007.3 in WSW 3.2 mph 11.3 mph 85 % 0.3 in
15:32 3.7 °F 1.4 °F 1007.3 in Calm   6.4 mph 85 % 0.0 in
15:40 3.7 °F 1.6 °F 1007.3 in Calm   6.4 mph 86 % 0.0 in
15:46 3.7 °F 1.6 °F 1007.7 in Calm   3.2 mph 86 % 0.0 in
15:53 3.8 °F 1.7 °F 1007.7 in SSW 1.4 mph 1.6 mph 86 % 0.0 in
15:59 3.6 °F 1.5 °F 1007.7 in SW 4.7 mph 6.4 mph 86 % 0.0 in
16:05 3.4 °F 1.4 °F 1007.7 in SW 1.4 mph 9.7 mph 87 % 0.0 in
16:11 3.3 °F 1.3 °F 1007.7 in SSW 4.7 mph 9.7 mph 87 % 0.0 in
16:15 3.3 °F 1.3 °F 1007.7 in SSW 3.2 mph 8.0 mph 87 % 0.0 in
16:27 3.4 °F 1.4 °F 1008.0 in SSW 1.4 mph 3.2 mph 87 % 0.0 in
16:33 3.5 °F 1.5 °F 1008.0 in Calm   1.6 mph 87 % 0.0 in
16:39 3.5 °F 1.5 °F 1008.0 in SSW 1.4 mph 1.6 mph 87 % 0.0 in
16:45 3.3 °F 1.3 °F 1008.0 in SSW 1.4 mph 3.2 mph 87 % 0.0 in
16:47 3.1 °F 1.1 °F 1008.0 in SW 1.4 mph 3.2 mph 87 % 0.0 in
16:53 2.8 °F 1.0 °F 1008.4 in SSW 1.4 mph 4.8 mph 88 % 0.0 in
16:59 2.7 °F 1.1 °F 1008.4 in SW 3.2 mph 3.2 mph 89 % 0.0 in
17:05 2.6 °F 1.0 °F 1008.4 in SSW 3.2 mph 3.2 mph 89 % 0.0 in
17:11 2.4 °F 0.8 °F 1008.4 in SW 1.4 mph 4.8 mph 89 % 0.0 in
17:17 2.3 °F 0.7 °F 1008.4 in SW 3.2 mph 6.4 mph 89 % 0.0 in
17:23 2.3 °F 0.8 °F 1008.7 in WSW 3.2 mph 4.8 mph 90 % 0.0 in
17:25 2.2 °F 0.7 °F 1008.7 in WSW 1.4 mph 3.2 mph 90 % 0.0 in
17:31 2.2 °F 0.7 °F 1008.7 in WSW 1.4 mph 6.4 mph 90 % 0.0 in
17:37 2.1 °F 0.6 °F 1008.7 in WSW 3.2 mph 3.2 mph 90 % 0.0 in
17:43 2.0 °F 0.7 °F 1009.0 in SW 1.4 mph 4.8 mph 91 % 0.0 in
17:45 2.0 °F 0.7 °F 1009.0 in Calm   4.8 mph 91 % 0.0 in
17:51 1.9 °F 0.6 °F 1009.0 in SW 1.4 mph 3.2 mph 91 % 0.0 in
17:57 1.9 °F 0.6 °F 1009.0 in WSW 3.2 mph 4.8 mph 91 % 0.0 in
18:01 1.9 °F 0.6 °F 1009.0 in WSW 1.4 mph 3.2 mph 91 % 0.0 in
18:07 1.8 °F 0.5 °F 1009.0 in WSW 1.4 mph 6.4 mph 91 % 0.0 in
18:13 1.7 °F 0.4 °F 1009.4 in WSW 1.4 mph 3.2 mph 91 % 0.0 in
18:19 1.6 °F 0.4 °F 1009.4 in West 3.2 mph 3.2 mph 92 % 0.0 in
18:25 1.6 °F 0.4 °F 1009.4 in West 1.4 mph 4.8 mph 92 % 0.0 in
18:31 1.6 °F 0.4 °F 1009.4 in West 1.4 mph 4.8 mph 92 % 0.0 in
18:35 1.5 °F 0.3 °F 1009.4 in West 3.2 mph 3.2 mph 92 % 0.0 in
18:37 1.5 °F 0.3 °F 1009.7 in WSW 3.2 mph 6.4 mph 92 % 0.0 in
18:49 1.6 °F 0.4 °F 1009.7 in West 3.2 mph 4.8 mph 92 % 0.0 in
18:55 1.5 °F 0.3 °F 1009.7 in West 3.2 mph 4.8 mph 92 % 0.0 in
19:01 1.5 °F 0.3 °F 1010.0 in WSW 3.2 mph 6.4 mph 92 % 0.0 in
19:07 1.5 °F 0.5 °F 1010.0 in WSW 1.4 mph 4.8 mph 93 % 0.0 in
19:13 1.5 °F 0.3 °F 1010.0 in West 1.4 mph 3.2 mph 92 % 0.0 in
19:19 1.5 °F 0.5 °F 1010.0 in West 3.2 mph 8.0 mph 93 % 0.0 in
19:25 1.5 °F 0.5 °F 1010.0 in West 3.2 mph 8.0 mph 93 % 0.0 in
19:31 1.4 °F 0.4 °F 1010.0 in Calm   3.2 mph 93 % 0.0 in
19:39 1.4 °F 0.4 °F 1010.4 in Calm   3.2 mph 93 % 0.0 in
19:45 1.2 °F 0.0 °F 1010.4 in Calm     92 % 0.0 in
19:51 0.8 °F -0.4 °F 1010.7 in Calm   1.6 mph 92 % 0.0 in
19:57 0.6 °F -0.4 °F 1010.7 in SSW 1.4 mph 3.2 mph 93 % 0.0 in
20:03 0.4 °F -0.6 °F 1010.7 in SSE 1.4 mph 3.2 mph 93 % 0.0 in
20:09 0.3 °F -0.6 °F 1010.7 in Calm   1.6 mph 94 % 0.0 in
20:17 0.2 °F -0.7 °F 1010.7 in Calm     94 % 0.0 in
20:23 0.1 °F -0.8 °F 1010.7 in Calm   3.2 mph 94 % 0.0 in
20:28 0.0 °F -0.8 °F 1010.7 in SSW 1.4 mph 3.2 mph 94 % 0.0 in
20:33 0.2 °F -0.5 °F 1010.7 in Calm   1.6 mph 95 % 0.0 in
20:39 0.2 °F -0.5 °F 1010.7 in Calm     95 % 0.0 in
20:42 0.1 °F -0.6 °F 1010.7 in Calm     95 % 0.0 in
20:48 0.0 °F -0.7 °F 1010.7 in Calm   1.6 mph 95 % 0.0 in
20:56 0.2 °F -0.5 °F 1010.7 in Calm   1.6 mph 95 % 0.0 in
20:58 0.2 °F -0.5 °F 1010.7 in Calm     95 % 0.0 in
21:04 0.1 °F -0.6 °F 1011.1 in Calm     95 % 0.0 in
21:10 -0.1 °F -0.8 °F 1011.1 in Calm     95 % 0.0 in
21:16 -0.2 °F -0.9 °F 1011.1 in Calm     95 % 0.0 in
21:22 -0.3 °F -1.0 °F 1011.1 in Calm   1.6 mph 95 % 0.0 in
21:28 -0.3 °F -1.0 °F 1011.1 in Calm     95 % 0.0 in
21:32 -0.3 °F -1.0 °F 1011.1 in Calm     95 % 0.0 in
21:38 -0.4 °F -1.1 °F 1011.4 in Calm     95 % 0.0 in
21:44 -0.6 °F -1.3 °F 1011.4 in Calm     95 % 0.0 in
21:50 -0.7 °F -1.4 °F 1011.4 in Calm     95 % 0.0 in
21:56 -0.6 °F -1.2 °F 1011.4 in WSW 1.4 mph 3.2 mph 96 % 0.0 in
21:58 -0.5 °F -1.1 °F 1011.4 in Calm   1.6 mph 96 % 0.0 in
22:04 -0.3 °F -0.9 °F 1011.4 in Calm   1.6 mph 96 % 0.0 in
22:10 -0.2 °F -0.8 °F 1011.7 in SW 1.4 mph 3.2 mph 96 % 0.0 in
22:14 -0.2 °F -0.8 °F 1011.7 in Calm   3.2 mph 96 % 0.0 in
22:16 -0.1 °F -0.7 °F 1011.7 in Calm   1.6 mph 96 % 0.0 in
22:24 -0.2 °F -0.8 °F 1011.7 in Calm   1.6 mph 96 % 0.0 in
22:30 -0.3 °F -0.9 °F 1011.7 in Calm   1.6 mph 96 % 0.0 in
22:36 -0.4 °F -1.0 °F 1011.7 in Calm   1.6 mph 96 % 0.0 in
22:42 -0.4 °F -1.0 °F 1011.7 in Calm     96 % 0.0 in
22:50 -0.4 °F -1.0 °F 1011.7 in Calm   1.6 mph 96 % 0.0 in
22:56 -0.6 °F -1.2 °F 1011.7 in Calm   1.6 mph 96 % 0.0 in
23:02 -0.7 °F -1.3 °F 1011.7 in Calm   1.6 mph 96 % 0.0 in
23:08 -0.8 °F -1.4 °F 1011.7 in Calm     96 % 0.0 in
23:14 -0.9 °F -1.5 °F 1012.1 in Calm   1.6 mph 96 % 0.0 in
23:20 -0.9 °F -1.5 °F 1012.1 in Calm   1.6 mph 96 % 0.0 in
23:26 -0.7 °F -1.1 °F 1012.1 in Calm   1.6 mph 97 % 0.0 in
23:32 -0.6 °F -1.0 °F 1012.4 in Calm   1.6 mph 97 % 0.0 in
23:38 -0.7 °F -1.3 °F 1012.4 in Calm     96 % 0.0 in
23:44 -0.7 °F -1.3 °F 1012.8 in Calm   1.6 mph 96 % 0.0 in
23:50 -0.8 °F -1.4 °F 1012.8 in Calm     96 % 0.0 in
23:54 -0.9 °F -1.5 °F 1012.8 in Calm     96 % 0.0 in
Meteo18
Compliments of Weather Underground - 4 mb

Script developed by  Jim McMurry - jmcmurry@mwt.net Adapted for the template by  Wim van der Kuil - Leuven-Template.eu

You find our weather info also at:

European Weather Network

Weather Underground

Equipment we use:

Weather-station
Davis Vue

Weather-program
Meteobridge

Weather-server
Raspberry PI 2 B+

Provider
1 and 1

Davis Vue

Meteobridge

Raspberry PI 2 B+

1 and 1